createdAt,value
2022-10-31T00:01:22.486Z,63.50
2022-10-31T00:03:50.181Z,63.50
2022-10-31T00:06:19.370Z,63.50
2022-10-31T00:08:48.160Z,63.49
2022-10-31T00:11:15.852Z,63.44
2022-10-31T00:13:43.261Z,63.59
2022-10-31T00:16:17.935Z,63.79
2022-10-31T00:18:49.738Z,63.65
2022-10-31T00:21:17.489Z,63.68
2022-10-31T00:23:45.089Z,64.38
2022-10-31T00:26:13.000Z,64.54
2022-10-31T00:28:40.407Z,64.29
2022-10-31T00:31:10.089Z,65.32
2022-10-31T00:33:39.529Z,64.15
2022-10-31T00:36:08.027Z,63.95
2022-10-31T00:38:35.458Z,63.71
2022-10-31T00:41:03.475Z,63.12
2022-10-31T00:43:30.900Z,63.11
2022-10-31T00:45:58.277Z,63.31
2022-10-31T00:48:26.111Z,63.14
2022-10-31T00:50:54.055Z,63.04
2022-10-31T00:53:21.601Z,63.08
2022-10-31T00:55:49.382Z,64.18
2022-10-31T00:58:17.063Z,63.94
2022-10-31T01:00:48.049Z,63.29
2022-10-31T01:03:18.661Z,62.97
2022-10-31T01:05:46.087Z,63.05
2022-10-31T01:08:13.562Z,62.65
2022-10-31T01:10:41.281Z,62.78
2022-10-31T01:13:09.600Z,62.48
2022-10-31T01:15:37.075Z,62.38
2022-10-31T01:18:08.101Z,62.65
2022-10-31T01:20:35.579Z,62.89
2022-10-31T01:23:02.992Z,63.12
2022-10-31T01:25:30.651Z,62.71
2022-10-31T01:27:58.225Z,62.73
2022-10-31T01:30:26.009Z,62.48
2022-10-31T01:32:53.969Z,62.51
2022-10-31T01:35:21.394Z,62.17
2022-10-31T01:37:48.821Z,62.11
2022-10-31T01:40:16.562Z,62.34
2022-10-31T01:42:43.986Z,62.63
2022-10-31T01:45:11.536Z,62.62
2022-10-31T01:47:43.529Z,62.45
2022-10-31T01:50:15.217Z,62.46
2022-10-31T01:52:47.767Z,62.88
2022-10-31T01:55:34.000Z,63.33
2022-10-31T01:58:11.887Z,63.21
2022-10-31T02:00:40.655Z,62.79
2022-10-31T02:03:08.318Z,63.27
2022-10-31T02:05:36.730Z,63.75
2022-10-31T02:08:08.983Z,63.72
2022-10-31T02:10:38.042Z,63.31
2022-10-31T02:13:07.431Z,63.01
2022-10-31T02:15:38.764Z,63.31
2022-10-31T02:18:07.155Z,63.39
2022-10-31T02:20:43.401Z,63.36
2022-10-31T02:23:26.323Z,63.45
2022-10-31T02:26:20.308Z,63.91
2022-10-31T02:29:18.111Z,64.21
2022-10-31T02:32:01.909Z,63.54
2022-10-31T02:34:39.221Z,63.89
2022-10-31T02:37:09.651Z,63.07
2022-10-31T02:39:52.386Z,63.85
2022-10-31T02:42:35.237Z,64.70
2022-10-31T02:45:09.577Z,65.20
2022-10-31T02:47:39.401Z,64.15
2022-10-31T02:50:12.353Z,63.74
2022-10-31T02:52:39.856Z,63.21
2022-10-31T02:55:30.776Z,62.94
2022-10-31T02:58:03.012Z,63.11
2022-10-31T03:00:38.894Z,62.94
2022-10-31T03:03:26.481Z,63.45
2022-10-31T03:06:04.119Z,63.08
2022-10-31T03:08:44.871Z,63.06
2022-10-31T03:11:12.584Z,62.97
2022-10-31T03:13:48.354Z,63.38
2022-10-31T03:16:26.083Z,64.24
2022-10-31T03:18:58.415Z,64.00
2022-10-31T03:21:52.963Z,63.37
2022-10-31T03:24:23.811Z,62.99
2022-10-31T03:26:54.666Z,62.86
2022-10-31T03:29:24.416Z,62.83
2022-10-31T03:32:20.869Z,62.81
2022-10-31T03:34:49.478Z,62.66
2022-10-31T03:37:19.281Z,62.81
2022-10-31T03:39:47.938Z,62.80
2022-10-31T03:42:17.549Z,62.51
2022-10-31T03:44:52.381Z,62.79
2022-10-31T03:47:19.944Z,62.65
2022-10-31T03:49:49.079Z,62.36
2022-10-31T03:52:36.505Z,62.50
2022-10-31T03:55:12.063Z,62.67
2022-10-31T03:57:44.646Z,62.76
2022-10-31T04:00:14.450Z,62.56
2022-10-31T04:03:07.635Z,62.46
2022-10-31T04:05:36.143Z,62.28
2022-10-31T04:08:11.067Z,62.56
2022-10-31T04:10:38.715Z,62.12
2022-10-31T04:13:12.471Z,61.97
2022-10-31T04:15:42.269Z,62.03
2022-10-31T04:18:10.069Z,62.15
2022-10-31T04:20:40.553Z,62.31
2022-10-31T04:23:19.686Z,62.50
2022-10-31T04:25:47.163Z,62.76
2022-10-31T04:28:15.003Z,62.31
2022-10-31T04:30:43.982Z,62.06
2022-10-31T04:33:12.006Z,62.22
2022-10-31T04:35:39.940Z,62.08
2022-10-31T04:38:07.436Z,61.75
2022-10-31T04:40:34.911Z,61.76
2022-10-31T04:43:04.913Z,61.70
2022-10-31T04:45:33.078Z,62.17
2022-10-31T04:48:00.976Z,61.94
2022-10-31T04:50:33.521Z,61.75
2022-10-31T04:53:01.132Z,61.70
2022-10-31T04:55:28.915Z,61.88
2022-10-31T04:57:59.335Z,62.03
2022-10-31T05:00:27.307Z,61.72
2022-10-31T05:02:58.147Z,61.69
2022-10-31T05:05:31.641Z,61.44
2022-10-31T05:07:59.163Z,62.14
2022-10-31T05:10:29.178Z,62.05
2022-10-31T05:13:00.819Z,62.31
2022-10-31T05:15:30.858Z,61.77
2022-10-31T05:18:03.449Z,61.40
2022-10-31T05:20:34.414Z,61.56
2022-10-31T05:23:02.984Z,61.46
2022-10-31T05:25:31.109Z,61.53
2022-10-31T05:27:59.715Z,61.71
2022-10-31T05:30:30.120Z,62.03
2022-10-31T05:32:59.192Z,62.01
2022-10-31T05:35:32.483Z,62.00
2022-10-31T05:38:00.996Z,61.81
2022-10-31T05:40:29.311Z,62.00
2022-10-31T05:42:59.741Z,61.88
2022-10-31T05:45:27.790Z,62.30
2022-10-31T05:48:01.941Z,62.86
2022-10-31T05:50:32.959Z,63.44
2022-10-31T05:53:02.660Z,63.28
2022-10-31T05:55:31.151Z,62.91
2022-10-31T05:57:59.864Z,62.85
2022-10-31T06:00:28.780Z,62.42
2022-10-31T06:03:02.409Z,62.64
2022-10-31T06:05:31.111Z,62.74
2022-10-31T06:07:59.273Z,62.84
2022-10-31T06:10:27.652Z,62.70
2022-10-31T06:12:55.381Z,62.74
2022-10-31T06:15:24.519Z,63.12
2022-10-31T06:18:06.583Z,63.60
2022-10-31T06:20:34.532Z,63.21
2022-10-31T06:23:03.004Z,63.66
2022-10-31T06:25:31.967Z,63.64
2022-10-31T06:27:59.574Z,63.92
2022-10-31T06:30:28.781Z,63.40
2022-10-31T06:33:03.259Z,64.01
2022-10-31T06:35:31.232Z,63.05
2022-10-31T06:38:00.171Z,63.50
2022-10-31T06:40:28.059Z,64.17
2022-10-31T06:43:00.044Z,63.74
2022-10-31T06:45:28.087Z,63.94
2022-10-31T06:48:16.184Z,63.21
2022-10-31T06:50:47.897Z,63.26
2022-10-31T06:53:15.852Z,63.42
2022-10-31T06:55:43.561Z,63.68
2022-10-31T06:58:12.091Z,63.38
2022-10-31T07:00:40.186Z,63.28
2022-10-31T07:03:11.461Z,63.02
2022-10-31T07:05:39.269Z,63.53
2022-10-31T07:08:09.531Z,62.67
2022-10-31T07:10:40.499Z,62.94
2022-10-31T07:13:14.480Z,63.04
2022-10-31T07:15:43.681Z,62.07
2022-10-31T07:18:12.772Z,62.10
2022-10-31T07:20:40.384Z,61.88
2022-10-31T07:23:10.713Z,62.51
2022-10-31T07:25:39.685Z,62.68
2022-10-31T07:28:07.667Z,62.55
2022-10-31T07:30:35.292Z,62.85
2022-10-31T07:33:03.615Z,62.28
2022-10-31T07:35:32.936Z,62.56
2022-10-31T07:38:08.807Z,62.24
2022-10-31T07:40:36.693Z,62.46
2022-10-31T07:43:04.195Z,62.46
2022-10-31T07:45:33.013Z,62.84
2022-10-31T07:48:04.455Z,62.80
2022-10-31T07:50:37.915Z,63.06
2022-10-31T07:53:10.279Z,63.29
2022-10-31T07:55:39.543Z,65.77
2022-10-31T07:58:09.504Z,64.80
2022-10-31T08:00:40.077Z,64.45
2022-10-31T08:03:10.492Z,65.11
2022-10-31T08:05:40.968Z,65.30
2022-10-31T08:08:12.048Z,64.40
2022-10-31T08:10:39.858Z,64.07
2022-10-31T08:13:13.331Z,63.72
2022-10-31T08:15:42.883Z,63.46
2022-10-31T08:18:14.042Z,63.21
2022-10-31T08:20:42.754Z,63.29
2022-10-31T08:23:11.732Z,63.80
2022-10-31T08:25:39.420Z,63.97
2022-10-31T08:28:08.149Z,63.08
2022-10-31T08:30:37.939Z,63.04
2022-10-31T08:33:12.975Z,62.90
2022-10-31T08:35:43.259Z,63.20
2022-10-31T08:38:15.287Z,63.32
2022-10-31T08:40:43.541Z,62.74
2022-10-31T08:43:15.391Z,62.88
2022-10-31T08:45:44.595Z,62.58
2022-10-31T08:48:16.280Z,62.52
2022-10-31T08:50:44.978Z,61.91
2022-10-31T08:53:20.048Z,62.46
2022-10-31T08:55:48.851Z,64.85
2022-10-31T08:58:19.644Z,63.50
2022-10-31T09:00:49.897Z,63.39
2022-10-31T09:03:23.634Z,63.07
2022-10-31T09:05:51.797Z,63.00
2022-10-31T09:08:19.664Z,64.33
2022-10-31T09:10:47.457Z,64.12
2022-10-31T09:13:17.566Z,63.41
2022-10-31T09:15:48.919Z,63.43
2022-10-31T09:18:19.545Z,63.45
2022-10-31T09:20:49.183Z,63.83
2022-10-31T09:23:24.032Z,63.74
2022-10-31T09:25:53.300Z,63.02
2022-10-31T09:28:24.879Z,63.33
2022-10-31T09:30:54.174Z,63.24
2022-10-31T09:33:22.302Z,63.20
2022-10-31T09:35:51.690Z,62.91
2022-10-31T09:38:21.485Z,62.60
2022-10-31T09:41:16.645Z,63.13
2022-10-31T09:43:55.409Z,63.24
2022-10-31T09:46:34.397Z,63.87
2022-10-31T09:49:14.425Z,63.72
2022-10-31T09:51:50.531Z,63.03
2022-10-31T09:54:49.878Z,63.11
2022-10-31T09:57:21.102Z,62.78
2022-10-31T09:59:49.204Z,62.84
2022-10-31T10:02:42.078Z,64.33
2022-10-31T10:05:14.600Z,65.73
2022-10-31T10:07:45.547Z,64.23
2022-10-31T10:10:18.578Z,63.64
2022-10-31T10:13:03.604Z,63.37
2022-10-31T10:15:54.140Z,64.18
2022-10-31T10:18:43.961Z,64.02
2022-10-31T10:21:38.910Z,63.68
2022-10-31T10:24:09.374Z,64.22
2022-10-31T10:26:51.150Z,63.97
2022-10-31T10:29:33.657Z,64.55
2022-10-31T10:32:04.112Z,64.83
2022-10-31T10:34:36.053Z,66.08
2022-10-31T10:37:06.354Z,65.88
2022-10-31T10:39:57.169Z,67.19
2022-10-31T10:42:45.035Z,65.22
2022-10-31T10:45:36.643Z,65.43
2022-10-31T10:48:15.488Z,66.22
2022-10-31T10:50:48.718Z,65.08
2022-10-31T10:53:32.588Z,65.52
2022-10-31T10:56:19.488Z,64.37
2022-10-31T10:58:47.281Z,64.11
2022-10-31T11:03:48.523Z,64.67
2022-10-31T11:06:26.982Z,64.56
2022-10-31T11:08:54.832Z,65.56
2022-10-31T11:11:28.874Z,64.75
2022-10-31T11:14:01.705Z,64.06
2022-10-31T11:16:41.432Z,64.49
2022-10-31T11:19:17.672Z,65.16
2022-10-31T11:21:51.235Z,64.51
2022-10-31T11:24:23.960Z,64.20
2022-10-31T11:26:52.280Z,63.83
2022-10-31T11:29:25.923Z,64.35
2022-10-31T11:31:58.079Z,64.39
2022-10-31T11:34:38.039Z,63.67
2022-10-31T11:37:19.857Z,63.76
2022-10-31T11:39:54.712Z,63.87
2022-10-31T11:42:24.386Z,64.06
2022-10-31T11:44:52.928Z,63.40
2022-10-31T11:47:26.824Z,64.38
2022-10-31T11:49:54.979Z,63.65
2022-10-31T11:52:30.896Z,63.41
2022-10-31T11:55:01.132Z,63.34
2022-10-31T11:57:30.864Z,63.24
2022-10-31T12:00:01.395Z,62.78
2022-10-31T12:02:29.396Z,63.21
2022-10-31T12:05:30.181Z,63.70
2022-10-31T12:08:01.990Z,62.78
2022-10-31T12:10:57.206Z,62.81
2022-10-31T12:13:46.578Z,62.73
2022-10-31T12:16:27.733Z,62.66
2022-10-31T12:18:55.139Z,63.31
2022-10-31T12:21:47.099Z,62.82
2022-10-31T12:24:22.010Z,62.83
2022-10-31T12:27:20.844Z,62.49
2022-10-31T12:30:13.134Z,63.26
2022-10-31T12:33:17.825Z,63.32
2022-10-31T12:36:09.662Z,63.00
2022-10-31T12:39:19.012Z,62.68
2022-10-31T12:42:11.261Z,62.36
2022-10-31T12:45:00.716Z,62.51
2022-10-31T12:47:45.913Z,62.22
2022-10-31T12:50:42.926Z,62.09
2022-10-31T12:53:29.002Z,63.15
2022-10-31T12:56:20.792Z,63.01
2022-10-31T12:58:58.047Z,62.51
2022-10-31T13:01:34.030Z,63.06
2022-10-31T13:04:22.723Z,62.61
2022-10-31T13:06:54.256Z,64.15
2022-10-31T13:09:28.561Z,63.51
2022-10-31T13:12:00.222Z,63.20
2022-10-31T13:14:44.361Z,62.93
2022-10-31T13:17:43.797Z,63.42
2022-10-31T13:20:31.275Z,63.32
2022-10-31T13:26:29.937Z,64.01
2022-10-31T13:29:07.978Z,63.34
2022-10-31T13:31:35.463Z,62.83
2022-10-31T13:34:06.205Z,62.58
2022-10-31T13:36:39.667Z,62.51
2022-10-31T13:39:19.915Z,62.91
2022-10-31T13:42:22.380Z,62.61
2022-10-31T13:44:50.166Z,62.86
2022-10-31T13:47:35.575Z,61.91
2022-10-31T13:50:24.970Z,62.81
2022-10-31T13:52:52.485Z,63.00
2022-10-31T13:55:38.283Z,62.32
2022-10-31T13:58:19.679Z,62.28
2022-10-31T14:00:47.921Z,62.66
2022-10-31T14:03:35.889Z,62.88
2022-10-31T14:06:09.805Z,64.09
2022-10-31T14:08:40.920Z,65.72
2022-10-31T14:11:10.374Z,66.08
2022-10-31T14:13:46.115Z,65.17
2022-10-31T14:16:24.254Z,66.71
2022-10-31T14:19:18.995Z,65.67
2022-10-31T14:21:50.523Z,64.31
2022-10-31T14:24:24.330Z,64.22
2022-10-31T14:26:53.604Z,64.97
2022-10-31T14:29:22.715Z,63.84
2022-10-31T14:31:56.092Z,63.66
2022-10-31T14:34:38.992Z,63.94
2022-10-31T14:37:25.294Z,62.74
2022-10-31T14:40:07.239Z,63.80
2022-10-31T14:42:56.856Z,63.22
2022-10-31T14:45:54.984Z,63.31
2022-10-31T14:48:49.145Z,63.75
2022-10-31T14:51:19.595Z,64.05
2022-10-31T14:53:48.753Z,63.31
2022-10-31T14:56:34.413Z,63.57
2022-10-31T14:59:05.374Z,64.39
2022-10-31T15:01:38.426Z,65.03
2022-10-31T15:04:24.948Z,68.68
2022-10-31T15:07:03.984Z,68.80
2022-10-31T15:09:34.344Z,67.40
2022-10-31T15:12:22.964Z,67.60
2022-10-31T15:14:50.917Z,66.83
2022-10-31T15:17:18.406Z,66.04
2022-10-31T15:19:46.634Z,66.07
2022-10-31T15:22:20.060Z,64.96
2022-10-31T15:24:47.680Z,65.44
2022-10-31T15:27:17.274Z,65.90
2022-10-31T15:29:55.550Z,64.55
2022-10-31T15:32:28.015Z,64.74
2022-10-31T15:34:57.099Z,64.32
2022-10-31T15:37:26.571Z,64.07
2022-10-31T15:39:54.064Z,64.49
2022-10-31T15:42:42.292Z,64.57
2022-10-31T15:45:09.989Z,64.81
2022-10-31T15:47:37.803Z,65.51
2022-10-31T15:50:18.243Z,64.75
2022-10-31T15:52:48.627Z,65.03
2022-10-31T15:55:19.234Z,67.78
2022-10-31T15:57:58.043Z,68.21
2022-10-31T16:00:25.877Z,67.44
2022-10-31T16:03:15.191Z,67.32
2022-10-31T16:05:49.798Z,68.19
2022-10-31T16:08:29.827Z,69.42
2022-10-31T16:10:58.417Z,67.93
2022-10-31T16:13:31.914Z,67.53
2022-10-31T16:16:33.404Z,66.73
2022-10-31T16:18:52.001Z,66.49
2022-10-31T16:21:32.367Z,65.76
2022-10-31T16:24:06.052Z,65.20
2022-10-31T16:26:34.785Z,65.07
2022-10-31T16:29:05.800Z,64.85
2022-10-31T16:31:41.228Z,65.13
2022-10-31T16:34:15.406Z,66.58
2022-10-31T16:36:43.178Z,66.65
2022-10-31T16:39:11.104Z,65.69
2022-10-31T16:41:46.784Z,66.41
2022-10-31T16:44:23.777Z,66.04
2022-10-31T16:47:15.795Z,64.83
2022-10-31T16:49:44.176Z,64.80
2022-10-31T16:52:11.687Z,64.63
2022-10-31T16:54:40.195Z,63.85
2022-10-31T16:57:13.821Z,65.21
2022-10-31T16:59:41.916Z,64.79
2022-10-31T17:02:18.941Z,65.33
2022-10-31T17:04:49.675Z,65.80
2022-10-31T17:07:20.108Z,65.94
2022-10-31T17:09:47.544Z,66.60
2022-10-31T17:12:19.614Z,66.00
2022-10-31T17:14:50.229Z,66.51
2022-10-31T17:17:17.684Z,66.01
2022-10-31T17:19:45.161Z,66.55
2022-10-31T17:22:13.554Z,68.15
2022-10-31T17:24:41.196Z,68.06
2022-10-31T17:27:08.667Z,67.25
2022-10-31T17:29:36.438Z,66.03
2022-10-31T17:32:04.291Z,66.45
2022-10-31T17:34:31.868Z,67.31
2022-10-31T17:36:59.823Z,67.10
2022-10-31T17:39:27.438Z,67.86
2022-10-31T17:41:54.849Z,66.43
2022-10-31T17:44:22.567Z,66.43
2022-10-31T17:46:50.397Z,66.21
2022-10-31T17:49:17.851Z,67.13
2022-10-31T17:51:45.720Z,66.46
2022-10-31T17:54:13.354Z,65.70
2022-10-31T17:56:40.883Z,65.43
2022-10-31T17:59:08.726Z,65.24
2022-10-31T18:01:36.467Z,66.24
2022-10-31T18:04:04.552Z,65.09
2022-10-31T18:06:32.144Z,66.49
2022-10-31T18:09:04.130Z,66.03
2022-10-31T18:11:32.142Z,66.02
2022-10-31T18:13:59.875Z,66.75
2022-10-31T18:16:27.679Z,65.66
2022-10-31T18:18:59.368Z,66.28
2022-10-31T18:21:26.905Z,66.59
2022-10-31T18:23:59.485Z,67.16
2022-10-31T18:26:28.222Z,67.64
2022-10-31T18:28:56.268Z,66.99
2022-10-31T18:31:25.324Z,66.29
2022-10-31T18:33:54.975Z,67.05
2022-10-31T18:36:23.514Z,67.12
2022-10-31T18:38:51.211Z,66.93
2022-10-31T18:41:18.879Z,67.22
2022-10-31T18:43:46.628Z,66.50
2022-10-31T18:46:15.416Z,66.97
2022-10-31T18:48:44.261Z,66.31
2022-10-31T18:51:14.590Z,66.80
2022-10-31T18:53:42.115Z,66.91
2022-10-31T18:56:11.115Z,66.92
2022-10-31T18:58:39.032Z,67.20
2022-10-31T19:01:08.474Z,66.72
2022-10-31T19:03:36.988Z,68.02
2022-10-31T19:06:05.588Z,67.01
2022-10-31T19:08:33.642Z,67.03
2022-10-31T19:11:10.441Z,66.02
2022-10-31T19:13:38.899Z,66.16
2022-10-31T19:16:09.669Z,65.59
2022-10-31T19:18:37.657Z,66.84
2022-10-31T19:21:09.731Z,67.29
2022-10-31T19:23:37.794Z,67.28
2022-10-31T19:26:05.860Z,66.80
2022-10-31T19:28:34.837Z,66.69
2022-10-31T19:31:02.659Z,66.78
2022-10-31T19:33:35.017Z,67.60
2022-10-31T19:36:10.109Z,67.91
2022-10-31T19:38:40.102Z,68.85
2022-10-31T19:41:14.336Z,68.16
2022-10-31T19:43:42.366Z,68.11
2022-10-31T19:46:22.394Z,67.57
2022-10-31T19:49:00.201Z,66.54
2022-10-31T19:51:28.050Z,67.52
2022-10-31T19:53:55.670Z,66.70
2022-10-31T19:56:25.043Z,66.65
2022-10-31T19:58:52.792Z,67.53
2022-10-31T20:01:23.000Z,66.47
2022-10-31T20:03:51.661Z,67.84
2022-10-31T20:06:23.203Z,68.29
2022-10-31T20:08:51.254Z,66.93
2022-10-31T20:11:19.196Z,67.26
2022-10-31T20:13:46.748Z,67.39
2022-10-31T20:16:15.367Z,68.33
2022-10-31T20:18:44.239Z,68.12
2022-10-31T20:21:21.203Z,70.32
2022-10-31T20:23:49.098Z,69.92
2022-10-31T20:26:19.151Z,72.31
2022-10-31T20:28:46.807Z,70.69
2022-10-31T20:31:18.825Z,70.65
2022-10-31T20:33:47.525Z,71.49
2022-10-31T20:36:15.724Z,72.28
2022-10-31T20:38:44.142Z,70.69
2022-10-31T20:41:12.208Z,69.62
2022-10-31T20:43:40.119Z,68.95
2022-10-31T20:46:10.834Z,68.40
2022-10-31T20:48:38.729Z,68.64
2022-10-31T20:51:08.523Z,67.91
2022-10-31T20:53:36.150Z,68.19
2022-10-31T20:56:07.174Z,68.78
2022-10-31T20:58:37.830Z,69.21
2022-10-31T21:01:08.501Z,68.89
2022-10-31T21:03:36.656Z,69.32
2022-10-31T21:06:05.028Z,68.68
2022-10-31T21:08:33.373Z,68.73
2022-10-31T21:11:05.373Z,68.42
2022-10-31T21:13:39.551Z,67.80
2022-10-31T21:16:11.572Z,67.85
2022-10-31T21:18:40.346Z,67.87
2022-10-31T21:21:09.914Z,67.81
2022-10-31T21:23:37.883Z,67.58
2022-10-31T21:26:17.107Z,68.40
2022-10-31T21:28:44.983Z,68.07
2022-10-31T21:31:14.730Z,67.30
2022-10-31T21:33:43.080Z,67.67
2022-10-31T21:36:10.992Z,67.00
2022-10-31T21:38:38.663Z,67.03
2022-10-31T21:41:09.563Z,67.82
2022-10-31T21:43:39.088Z,68.58
2022-10-31T21:46:10.915Z,69.20
2022-10-31T21:48:41.761Z,68.65
2022-10-31T21:51:14.091Z,67.97
2022-10-31T21:54:00.808Z,67.09
2022-10-31T21:56:28.592Z,66.62
2022-10-31T21:58:56.562Z,66.51
2022-10-31T22:01:25.493Z,67.04
2022-10-31T22:03:53.489Z,66.84
2022-10-31T22:06:21.228Z,68.04
2022-10-31T22:08:48.881Z,68.41
2022-10-31T22:11:18.219Z,69.40
2022-10-31T22:13:48.044Z,68.02
2022-10-31T22:16:19.846Z,68.42
2022-10-31T22:18:48.727Z,67.83
2022-10-31T22:21:18.114Z,68.09
2022-10-31T22:23:56.724Z,68.34
2022-10-31T22:26:25.177Z,70.01
2022-10-31T22:28:59.471Z,69.51
2022-10-31T22:31:27.761Z,69.01
2022-10-31T22:33:56.062Z,71.15
2022-10-31T22:36:26.341Z,70.48
2022-10-31T22:38:54.288Z,69.64
2022-10-31T22:41:24.261Z,70.37
2022-10-31T22:43:52.166Z,69.35
2022-10-31T22:46:22.330Z,68.39
2022-10-31T22:48:55.929Z,68.17
2022-10-31T22:51:26.216Z,68.90
2022-10-31T22:53:56.703Z,68.42
2022-10-31T22:56:26.984Z,68.69
2022-10-31T22:58:54.722Z,68.06
2022-10-31T23:01:24.629Z,67.95
2022-10-31T23:03:52.579Z,67.75
2022-10-31T23:06:24.923Z,67.59
2022-10-31T23:08:53.322Z,67.41
2022-10-31T23:11:34.683Z,69.09
2022-10-31T23:14:10.678Z,68.08
2022-10-31T23:16:44.699Z,68.10
2022-10-31T23:19:24.561Z,67.97
2022-10-31T23:22:05.368Z,68.44
2022-10-31T23:24:35.641Z,68.39
2022-10-31T23:27:25.407Z,67.99
2022-10-31T23:29:55.715Z,67.33
2022-10-31T23:32:27.993Z,69.04
2022-10-31T23:34:57.446Z,68.51
2022-10-31T23:37:28.018Z,69.81
2022-10-31T23:39:56.099Z,69.26
2022-10-31T23:42:25.616Z,68.37
2022-10-31T23:44:53.163Z,68.21
2022-10-31T23:47:21.127Z,67.45
2022-10-31T23:49:49.305Z,67.08
2022-10-31T23:52:17.042Z,66.62
2022-10-31T23:54:44.824Z,67.14
2022-10-31T23:57:13.395Z,67.44
2022-10-31T23:59:40.830Z,67.72
